Terminal Aerodrome Forecast
Issued by NWS

Home | Current Version | Previous Version | Text Only | Print | Product List | Glossary On
Versions: 1 2 3 4 5 6 7 8 9 10 11 12 13 14 15 16 17
448
FTUS46 KLOX 181741
TAFVNY
TAF
KVNY 181741Z 1818/1918 VRB03KT P6SM SCT015 BKN120
     FM182000 14008KT P6SM SCT025 BKN150
     FM190300 15009KT P6SM -SHRA OVC015
     FM190600 13015G25KT 3SM +RA BR BKN008 OVC015
     FM191100 15013G25KT 3SM RA BR OVC007
     FM191500 21014G25KT 3SM TSRA BR BKN005 OVC010CB=

USA.gov is the U.S. government's official web portal to all federal, state and local government web resources and services.